Richmond, United Kingdom
Current Conditions -  °F | °C
As of 6:20 AM on Wednesday 26 Nov 2014 (Local Time) from EGLL Reporting Station
Haze Haze  
Wind Chill: 46°   Ceiling: 1100
Heat Index: 46°   Visibility: 2.8mi
Dew Point: 45°   Wind: 3mph
Humidity: 93%   Direction: NA
Pressure: 29.88"   Gusts: NA
Location:  51.46°N, 0.3°W
Report Text: EGLL 260620Z VRB03KT 4500 BR FEW004 BKN011 08/07 Q1012 TEMPO BKN004
Loading
Personal Weather Stations






























Interactive Weather Map New forecast layout! Learn more

10-Day Weather Forecast

Advertisements
Track Severe Weather on mobile